createdAt,value
2022-08-26T00:00:14.966Z,24.80
2022-08-26T00:05:18.474Z,24.80
2022-08-26T00:10:23.082Z,24.80
2022-08-26T00:15:29.002Z,24.80
2022-08-26T00:20:34.368Z,24.80
2022-08-26T00:25:42.476Z,24.80
2022-08-26T00:30:48.079Z,24.70
2022-08-26T00:35:54.634Z,24.70
2022-08-26T00:41:00.435Z,24.70
2022-08-26T00:46:15.423Z,24.60
2022-08-26T00:51:23.065Z,24.60
2022-08-26T00:56:32.552Z,24.60
2022-08-26T01:01:36.524Z,24.60
2022-08-26T01:06:44.411Z,24.60
2022-08-26T01:11:51.976Z,24.60
2022-08-26T01:16:55.011Z,24.60
2022-08-26T01:22:00.671Z,24.60
2022-08-26T01:27:09.023Z,24.60
2022-08-26T01:32:15.950Z,24.50
2022-08-26T01:37:21.224Z,24.50
2022-08-26T01:42:28.548Z,24.50
2022-08-26T01:47:34.706Z,24.40
2022-08-26T01:52:42.694Z,24.50
2022-08-26T01:57:49.977Z,24.40
2022-08-26T02:03:12.221Z,24.40
2022-08-26T02:08:20.599Z,24.40
2022-08-26T02:13:32.628Z,24.40
2022-08-26T02:18:39.150Z,24.40
2022-08-26T02:23:42.623Z,24.30
2022-08-26T02:28:52.399Z,24.30
2022-08-26T02:33:55.454Z,24.30
2022-08-26T02:39:00.603Z,24.20
2022-08-26T02:44:07.133Z,24.20
2022-08-26T02:49:10.280Z,24.20
2022-08-26T02:54:13.643Z,24.20
2022-08-26T02:59:18.308Z,24.20
2022-08-26T03:04:21.343Z,24.20
2022-08-26T03:09:28.818Z,24.20
2022-08-26T03:14:33.246Z,24.20
2022-08-26T03:19:36.502Z,24.20
2022-08-26T03:24:39.555Z,24.20
2022-08-26T03:30:01.348Z,24.20
2022-08-26T03:35:04.755Z,24.10
2022-08-26T03:40:10.448Z,24.10
2022-08-26T03:45:17.188Z,24.10
2022-08-26T03:50:24.259Z,24.00
2022-08-26T03:55:31.920Z,24.00
2022-08-26T04:00:36.576Z,24.00
2022-08-26T04:05:39.735Z,24.00
2022-08-26T04:10:43.495Z,24.00
2022-08-26T04:15:48.026Z,24.00
2022-08-26T04:20:51.506Z,24.00
2022-08-26T04:25:54.527Z,23.90
2022-08-26T04:30:59.290Z,23.90
2022-08-26T04:36:03.405Z,23.90
2022-08-26T04:41:15.372Z,23.90
2022-08-26T04:46:24.437Z,23.90
2022-08-26T04:51:28.538Z,23.80
2022-08-26T04:56:33.894Z,23.90
2022-08-26T05:01:39.714Z,23.80
2022-08-26T05:06:42.999Z,23.80
2022-08-26T05:11:48.404Z,23.80
2022-08-26T05:16:56.397Z,23.80
2022-08-26T05:21:59.427Z,23.80
2022-08-26T05:27:03.148Z,23.80
2022-08-26T05:32:16.026Z,23.80
2022-08-26T05:37:19.432Z,23.70
2022-08-26T05:42:23.218Z,23.60
2022-08-26T05:47:27.723Z,23.50
2022-08-26T05:52:30.767Z,23.50
2022-08-26T05:57:37.465Z,23.40
2022-08-26T06:02:44.441Z,23.20
2022-08-26T06:08:08.731Z,23.10
2022-08-26T06:13:13.190Z,23.50
2022-08-26T06:18:21.960Z,23.60
2022-08-26T06:23:42.586Z,23.60
2022-08-26T06:28:45.913Z,23.70
2022-08-26T06:33:51.113Z,23.60
2022-08-26T06:38:56.099Z,23.70
2022-08-26T06:44:00.380Z,23.70
2022-08-26T06:49:05.578Z,23.70
2022-08-26T06:54:09.538Z,23.70
2022-08-26T06:59:13.579Z,23.90
2022-08-26T07:04:20.115Z,24.00
2022-08-26T07:09:27.589Z,24.00
2022-08-26T07:14:31.738Z,24.10
2022-08-26T07:19:36.931Z,24.30
2022-08-26T07:24:42.497Z,24.40
2022-08-26T07:29:46.075Z,24.40
2022-08-26T07:34:50.876Z,24.50
2022-08-26T07:39:53.984Z,24.70
2022-08-26T07:44:57.084Z,24.80
2022-08-26T07:50:02.045Z,24.80
2022-08-26T07:55:08.382Z,24.90
2022-08-26T08:00:15.941Z,25.10
2022-08-26T08:05:23.259Z,25.20
2022-08-26T08:10:37.804Z,25.20
2022-08-26T08:15:42.310Z,25.30
2022-08-26T08:20:59.412Z,25.30
2022-08-26T08:26:11.908Z,25.40
2022-08-26T08:31:38.666Z,25.40
2022-08-26T08:36:46.722Z,25.50
2022-08-26T08:42:06.488Z,25.50
2022-08-26T08:47:19.390Z,25.60
2022-08-26T08:52:30.630Z,25.60
2022-08-26T08:57:46.342Z,25.70
2022-08-26T09:02:58.115Z,25.70
2022-08-26T09:08:11.079Z,25.70
2022-08-26T09:13:25.362Z,25.80
2022-08-26T09:18:41.118Z,25.80
2022-08-26T09:23:51.980Z,25.90
2022-08-26T09:28:58.586Z,25.90
2022-08-26T09:34:17.274Z,26.00
2022-08-26T09:39:33.159Z,26.00
2022-08-26T09:44:51.962Z,26.00
2022-08-26T09:50:04.229Z,26.00
2022-08-26T09:55:21.597Z,26.00
2022-08-26T10:00:29.026Z,26.10
2022-08-26T10:05:37.408Z,26.10
2022-08-26T10:10:46.271Z,26.10
2022-08-26T10:16:00.797Z,26.20
2022-08-26T10:21:08.435Z,26.20
2022-08-26T10:26:19.295Z,26.30
2022-08-26T10:31:29.108Z,26.30
2022-08-26T10:37:13.962Z,26.30
2022-08-26T10:42:26.890Z,26.30
2022-08-26T10:47:36.778Z,26.40
2022-08-26T10:52:55.413Z,26.40
2022-08-26T10:58:09.075Z,26.40
2022-08-26T11:03:27.921Z,26.40
2022-08-26T11:08:31.749Z,26.40
2022-08-26T11:14:01.667Z,26.40
2022-08-26T11:19:06.488Z,26.50
2022-08-26T11:24:09.540Z,26.50
2022-08-26T11:29:34.032Z,26.60
2022-08-26T11:34:57.902Z,26.60
2022-08-26T11:40:03.287Z,26.60
2022-08-26T11:45:19.770Z,26.60
2022-08-26T11:50:26.126Z,26.60
2022-08-26T11:55:29.913Z,26.60
2022-08-26T12:00:45.758Z,26.60
2022-08-26T12:05:52.008Z,26.70
2022-08-26T12:11:04.149Z,26.70
2022-08-26T12:16:08.808Z,26.70
2022-08-26T12:21:16.020Z,26.70
2022-08-26T12:26:26.141Z,26.80
2022-08-26T12:31:33.839Z,26.80
2022-08-26T12:36:41.451Z,26.80
2022-08-26T12:41:52.923Z,26.80
2022-08-26T12:47:03.531Z,26.80
2022-08-26T12:52:07.940Z,26.80
2022-08-26T12:57:11.539Z,26.80
2022-08-26T13:02:37.495Z,26.80
2022-08-26T13:07:40.979Z,26.80
2022-08-26T13:12:44.083Z,26.80
2022-08-26T13:17:48.471Z,26.90
2022-08-26T13:22:58.502Z,26.90
2022-08-26T13:28:02.282Z,27.00
2022-08-26T13:33:06.857Z,27.00
2022-08-26T13:38:22.359Z,27.00
2022-08-26T13:43:37.085Z,27.00
2022-08-26T13:48:41.891Z,27.10
2022-08-26T13:53:47.932Z,27.10
2022-08-26T13:58:51.315Z,27.10
2022-08-26T14:03:57.164Z,27.10
2022-08-26T14:09:00.319Z,27.10
2022-08-26T14:14:03.647Z,27.10
2022-08-26T14:19:09.827Z,27.20
2022-08-26T14:24:12.898Z,27.20
2022-08-26T14:29:16.814Z,27.10
2022-08-26T14:34:21.639Z,27.20
2022-08-26T14:39:25.048Z,27.20
2022-08-26T14:44:31.216Z,27.30
2022-08-26T14:49:35.760Z,27.20
2022-08-26T14:54:38.853Z,27.20
2022-08-26T14:59:49.665Z,27.20
2022-08-26T15:04:54.602Z,27.20
2022-08-26T15:09:57.777Z,27.20
2022-08-26T15:15:00.844Z,27.30
2022-08-26T15:20:06.955Z,27.30
2022-08-26T15:25:11.693Z,27.30
2022-08-26T15:30:16.575Z,27.30
2022-08-26T15:35:21.171Z,27.30
2022-08-26T15:40:26.591Z,27.30
2022-08-26T15:45:29.743Z,27.30
2022-08-26T15:50:34.750Z,27.30
2022-08-26T15:55:37.790Z,27.30
2022-08-26T16:00:41.143Z,27.30
2022-08-26T16:05:45.931Z,27.30
2022-08-26T16:10:51.251Z,27.30
2022-08-26T16:15:54.331Z,27.30
2022-08-26T16:21:13.548Z,27.30
2022-08-26T16:26:19.867Z,27.30
2022-08-26T16:31:23.342Z,27.30
2022-08-26T16:36:27.816Z,27.30
2022-08-26T16:41:33.553Z,27.30
2022-08-26T16:46:37.171Z,27.30
2022-08-26T16:51:41.728Z,27.30
2022-08-26T16:56:44.771Z,27.20
2022-08-26T17:01:47.922Z,27.20
2022-08-26T17:06:52.408Z,27.20
2022-08-26T17:11:55.622Z,27.10
2022-08-26T17:16:59.294Z,27.10
2022-08-26T17:22:06.086Z,27.10
2022-08-26T17:27:09.160Z,27.00
2022-08-26T17:32:12.644Z,27.00
2022-08-26T17:37:17.419Z,26.90
2022-08-26T17:42:20.553Z,26.80
2022-08-26T17:47:35.317Z,26.80
2022-08-26T17:52:40.548Z,26.80
2022-08-26T17:57:44.035Z,26.70
2022-08-26T18:02:57.438Z,26.70
2022-08-26T18:08:01.893Z,26.70
2022-08-26T18:13:05.608Z,26.70
2022-08-26T18:18:08.756Z,26.60
2022-08-26T18:23:13.706Z,26.60
2022-08-26T18:28:16.980Z,26.60
2022-08-26T18:33:21.461Z,26.60
2022-08-26T18:38:28.304Z,26.60
2022-08-26T18:43:31.536Z,26.50
2022-08-26T18:48:36.727Z,26.50
2022-08-26T18:53:42.056Z,26.50
2022-08-26T18:58:45.286Z,26.50
2022-08-26T19:03:48.807Z,26.50
2022-08-26T19:08:53.736Z,26.50
2022-08-26T19:13:56.814Z,26.40
2022-08-26T19:19:01.382Z,26.40
2022-08-26T19:24:12.290Z,26.40
2022-08-26T19:34:24.775Z,26.30
2022-08-26T19:39:29.365Z,26.20
2022-08-26T19:44:49.979Z,26.10
2022-08-26T19:49:54.528Z,26.00
2022-08-26T19:54:59.011Z,25.90
2022-08-26T20:00:03.679Z,25.90
2022-08-26T20:05:08.291Z,25.80
2022-08-26T20:10:14.841Z,25.80
2022-08-26T20:15:17.987Z,25.70
2022-08-26T20:20:38.712Z,25.60
2022-08-26T20:25:43.218Z,25.60
2022-08-26T20:30:46.273Z,25.50
2022-08-26T20:35:49.347Z,25.50
2022-08-26T20:40:56.243Z,25.50
2022-08-26T20:45:59.486Z,25.60
2022-08-26T20:51:03.005Z,25.70
2022-08-26T20:56:09.743Z,25.70
2022-08-26T21:01:19.558Z,25.70
2022-08-26T21:06:22.714Z,25.70
2022-08-26T21:11:28.290Z,25.80
2022-08-26T21:16:31.747Z,25.80
2022-08-26T21:21:35.675Z,25.80
2022-08-26T21:26:40.364Z,25.80
2022-08-26T21:31:46.618Z,25.80
2022-08-26T21:36:50.723Z,25.80
2022-08-26T21:41:55.128Z,25.80
2022-08-26T21:46:58.162Z,25.70
2022-08-26T21:52:04.488Z,25.80
2022-08-26T21:57:08.987Z,25.80
2022-08-26T22:02:13.385Z,25.80
2022-08-26T22:07:17.257Z,25.80
2022-08-26T22:12:21.672Z,25.80
2022-08-26T22:17:24.735Z,25.80
2022-08-26T22:22:28.591Z,25.80
2022-08-26T22:27:33.066Z,25.70
2022-08-26T22:32:43.955Z,25.80
2022-08-26T22:37:48.132Z,25.70
2022-08-26T22:42:57.913Z,25.80
2022-08-26T22:48:05.018Z,25.80
2022-08-26T22:53:08.087Z,25.70
2022-08-26T22:58:14.452Z,25.70
2022-08-26T23:03:18.205Z,25.70
2022-08-26T23:08:21.385Z,25.70
2022-08-26T23:13:25.799Z,25.70
2022-08-26T23:18:28.906Z,25.70
2022-08-26T23:23:32.035Z,25.70
2022-08-26T23:28:38.522Z,25.70
2022-08-26T23:33:55.484Z,25.70
2022-08-26T23:38:58.564Z,25.70
2022-08-26T23:44:05.243Z,25.70
2022-08-26T23:49:08.295Z,25.70
2022-08-26T23:54:11.451Z,25.70
2022-08-26T23:59:15.967Z,25.70
